createdAt,value
2023-03-26T00:01:39.287Z,99308.14
2023-03-26T00:04:07.851Z,99311.14
2023-03-26T00:06:39.852Z,99307.14
2023-03-26T00:09:13.585Z,99307.05
2023-03-26T00:11:43.042Z,99303.70
2023-03-26T00:14:14.190Z,99302.27
2023-03-26T00:16:42.891Z,99304.23
2023-03-26T00:19:12.808Z,99300.73
2023-03-26T00:21:41.573Z,99291.63
2023-03-26T00:24:15.520Z,99299.23
2023-03-26T00:26:45.048Z,99297.71
2023-03-26T00:29:15.684Z,99302.05
2023-03-26T00:31:46.556Z,99298.14
2023-03-26T00:34:18.645Z,99298.92
2023-03-26T00:36:47.508Z,99295.80
2023-03-26T00:39:17.813Z,99292.33
2023-03-26T00:41:45.852Z,99292.91
2023-03-26T00:44:14.040Z,99291.56
2023-03-26T00:46:42.849Z,99289.08
2023-03-26T00:49:14.981Z,99290.91
2023-03-26T00:51:43.214Z,99288.52
2023-03-26T00:54:12.043Z,99289.52
2023-03-26T00:56:40.142Z,99288.77
2023-03-26T00:59:09.379Z,99276.44
2023-03-26T01:01:37.880Z,99281.69
2023-03-26T01:04:31.810Z,99280.23
2023-03-26T01:07:22.130Z,99278.62
2023-03-26T01:09:51.751Z,99279.48
2023-03-26T01:12:24.098Z,99276.59
2023-03-26T01:14:55.292Z,99276.88
2023-03-26T01:17:24.405Z,99266.45
2023-03-26T01:20:15.980Z,99274.98
2023-03-26T01:22:51.213Z,99272.84
2023-03-26T01:25:23.294Z,99270.85
2023-03-26T01:27:55.818Z,99271.81
2023-03-26T01:30:42.676Z,99264.38
2023-03-26T01:33:34.077Z,99262.02
2023-03-26T01:36:17.553Z,99257.58
2023-03-26T01:39:39.022Z,99242.62
2023-03-26T01:42:14.035Z,99255.65
2023-03-26T01:44:50.487Z,99239.77
2023-03-26T01:47:19.305Z,99252.20
2023-03-26T01:49:48.646Z,99249.41
2023-03-26T01:52:21.414Z,99248.73
2023-03-26T01:54:50.351Z,99242.91
2023-03-26T01:57:39.065Z,99225.80
2023-03-26T02:00:30.230Z,99239.82
2023-03-26T02:03:32.526Z,99232.81
2023-03-26T02:06:15.995Z,99230.52
2023-03-26T02:08:52.463Z,99227.84
2023-03-26T02:11:21.604Z,99225.27
2023-03-26T02:13:51.450Z,99222.27
2023-03-26T02:16:20.986Z,99218.58
2023-03-26T02:18:55.743Z,99217.26
2023-03-26T02:21:26.388Z,99219.31
2023-03-26T02:24:03.146Z,99220.23
2023-03-26T02:26:35.888Z,99222.92
2023-03-26T02:29:10.018Z,99217.20
2023-03-26T02:31:39.451Z,99220.77
2023-03-26T02:34:07.762Z,99221.91
2023-03-26T02:36:37.480Z,99215.88
2023-03-26T02:39:06.134Z,99212.45
2023-03-26T02:41:38.191Z,99208.42
2023-03-26T02:44:09.888Z,99209.15
2023-03-26T02:46:56.294Z,99211.88
2023-03-26T02:49:44.191Z,99211.44
2023-03-26T02:52:17.254Z,99209.27
2023-03-26T02:54:45.855Z,99204.83
2023-03-26T02:57:26.000Z,99206.59
2023-03-26T03:00:15.454Z,99207.06
2023-03-26T03:02:48.296Z,99206.74
2023-03-26T03:05:46.418Z,99212.05
2023-03-26T03:08:38.665Z,99209.52
2023-03-26T03:11:11.910Z,99206.45
2023-03-26T03:13:49.458Z,99212.73
2023-03-26T03:16:20.928Z,99210.14
2023-03-26T03:18:57.866Z,99210.61
2023-03-26T03:21:29.569Z,99206.73
2023-03-26T03:24:00.110Z,99209.02
2023-03-26T03:26:30.767Z,99207.70
2023-03-26T03:29:02.485Z,99206.85
2023-03-26T03:31:30.512Z,99212.89
2023-03-26T03:34:02.438Z,99213.75
2023-03-26T03:36:33.463Z,99218.65
2023-03-26T03:39:08.855Z,99218.47
2023-03-26T03:41:37.369Z,99221.06
2023-03-26T03:44:06.924Z,99219.52
2023-03-26T03:46:35.220Z,99216.63
2023-03-26T03:49:04.003Z,99219.77
2023-03-26T03:51:36.316Z,99223.27
2023-03-26T03:54:08.592Z,99225.98
2023-03-26T03:56:57.387Z,99223.34
2023-03-26T03:59:47.656Z,99219.83
2023-03-26T04:02:35.265Z,99220.73
2023-03-26T04:05:06.202Z,99215.80
2023-03-26T04:07:36.044Z,99213.23
2023-03-26T04:10:08.453Z,99210.83
2023-03-26T04:12:55.978Z,99210.98
2023-03-26T04:15:37.125Z,99212.83
2023-03-26T04:18:10.544Z,99214.20
2023-03-26T04:20:46.380Z,99209.94
2023-03-26T04:23:19.049Z,99210.09
2023-03-26T04:25:54.178Z,99207.87
2023-03-26T04:28:42.501Z,99207.65
2023-03-26T04:31:31.292Z,99207.67
2023-03-26T04:34:14.067Z,99207.63
2023-03-26T04:36:54.724Z,99205.77
2023-03-26T04:39:29.477Z,99206.75
2023-03-26T04:42:30.333Z,99205.93
2023-03-26T04:45:08.134Z,99204.61
2023-03-26T04:47:37.283Z,99203.65
2023-03-26T04:50:08.311Z,99201.73
2023-03-26T04:52:38.191Z,99201.77
2023-03-26T04:55:56.225Z,99189.34
2023-03-26T04:58:43.441Z,99201.17
2023-03-26T05:01:11.816Z,99198.61
2023-03-26T05:03:46.009Z,99202.58
2023-03-26T05:06:17.869Z,99202.09
2023-03-26T05:08:46.517Z,99204.28
2023-03-26T05:11:20.952Z,99201.08
2023-03-26T05:13:49.503Z,99196.80
2023-03-26T05:16:17.753Z,99198.16
2023-03-26T05:18:54.217Z,99203.55
2023-03-26T05:21:22.627Z,99201.52
2023-03-26T05:23:51.097Z,99200.05
2023-03-26T05:26:20.571Z,99199.11
2023-03-26T05:28:48.618Z,99197.62
2023-03-26T05:31:31.187Z,99195.55
2023-03-26T05:34:03.361Z,99195.59
2023-03-26T05:36:31.516Z,99190.41
2023-03-26T05:39:11.390Z,99195.13
2023-03-26T05:41:59.615Z,99191.61
2023-03-26T05:44:35.465Z,99192.27
2023-03-26T05:47:05.702Z,99190.95
2023-03-26T05:49:34.503Z,99190.34
2023-03-26T05:52:02.704Z,99191.58
2023-03-26T05:54:49.468Z,99194.60
2023-03-26T05:57:40.502Z,99195.13
2023-03-26T06:00:48.860Z,99197.79
2023-03-26T06:03:18.673Z,99208.20
2023-03-26T06:06:06.363Z,99206.84
2023-03-26T06:09:00.947Z,99200.75
2023-03-26T06:11:30.830Z,99201.78
2023-03-26T06:13:59.953Z,99201.30
2023-03-26T06:16:28.492Z,99204.90
2023-03-26T06:19:06.839Z,99210.03
2023-03-26T06:21:50.529Z,99206.88
2023-03-26T06:24:33.624Z,99207.06
2023-03-26T06:27:27.977Z,99210.52
2023-03-26T06:30:15.484Z,99212.23
2023-03-26T06:33:00.745Z,99210.14
2023-03-26T06:35:33.910Z,99212.52
2023-03-26T06:38:02.192Z,99214.45
2023-03-26T06:40:31.120Z,99210.52
2023-03-26T06:43:18.404Z,99211.42
2023-03-26T06:46:05.620Z,99213.84
2023-03-26T06:49:06.228Z,99211.55
2023-03-26T06:51:53.631Z,99213.86
2023-03-26T06:54:50.709Z,99211.16
2023-03-26T06:57:49.139Z,99212.27
2023-03-26T07:00:43.524Z,99210.19
2023-03-26T07:03:30.835Z,99209.48
2023-03-26T07:06:18.628Z,99207.48
2023-03-26T07:09:05.507Z,99207.28
2023-03-26T07:12:00.019Z,99204.23
2023-03-26T07:14:46.603Z,99203.30
2023-03-26T07:17:24.073Z,99206.52
2023-03-26T07:20:12.263Z,99207.76
2023-03-26T07:22:41.295Z,99206.15
2023-03-26T07:25:34.995Z,99206.61
2023-03-26T07:28:31.607Z,99206.81
2023-03-26T07:31:40.085Z,99204.26
2023-03-26T07:34:33.576Z,99203.58
2023-03-26T07:38:04.543Z,99193.77
2023-03-26T07:41:07.475Z,99195.44
2023-03-26T07:44:23.236Z,99195.21
2023-03-26T07:47:33.101Z,99196.98
2023-03-26T07:50:23.086Z,99198.05
2023-03-26T07:53:00.309Z,99197.80
2023-03-26T07:56:16.337Z,99197.70
2023-03-26T07:59:51.525Z,99192.54
2023-03-26T08:03:27.243Z,99192.25
2023-03-26T08:06:10.020Z,99192.22
2023-03-26T08:09:13.178Z,99189.55
2023-03-26T08:12:12.812Z,99195.64
2023-03-26T08:14:46.620Z,99191.45
2023-03-26T08:17:17.372Z,99191.73
2023-03-26T08:19:59.445Z,99189.88
2023-03-26T08:22:34.464Z,99188.51
2023-03-26T08:25:25.595Z,99188.92
2023-03-26T08:28:14.637Z,99186.84
2023-03-26T08:30:43.593Z,99186.77
2023-03-26T08:33:18.513Z,99180.95
2023-03-26T08:35:47.842Z,99183.88
2023-03-26T08:38:19.444Z,99186.05
2023-03-26T08:41:25.228Z,99179.98
2023-03-26T08:44:08.613Z,99178.84
2023-03-26T08:47:09.302Z,99184.40
2023-03-26T08:50:02.719Z,99181.99
2023-03-26T08:53:07.949Z,99188.39
2023-03-26T08:55:48.503Z,99189.30
2023-03-26T08:58:38.794Z,99187.16
2023-03-26T09:01:12.371Z,99188.08
2023-03-26T09:04:05.721Z,99180.17
2023-03-26T09:07:13.984Z,99179.98
2023-03-26T09:09:44.757Z,99165.96
2023-03-26T09:12:37.677Z,99176.20
2023-03-26T09:15:21.252Z,99176.55
2023-03-26T09:18:17.368Z,99171.59
2023-03-26T09:20:54.649Z,99171.27
2023-03-26T09:24:06.237Z,99167.66
2023-03-26T09:26:37.165Z,99166.27
2023-03-26T09:29:14.608Z,99166.83
2023-03-26T09:31:58.193Z,99165.30
2023-03-26T09:34:54.111Z,99167.02
2023-03-26T09:37:56.993Z,99164.75
2023-03-26T09:40:37.182Z,99169.80
2023-03-26T09:43:31.175Z,99170.52
2023-03-26T09:46:22.005Z,99168.36
2023-03-26T09:49:08.560Z,99172.04
2023-03-26T09:52:15.048Z,99166.86
2023-03-26T09:54:57.972Z,99159.61
2023-03-26T09:58:05.361Z,99165.00
2023-03-26T10:01:01.049Z,99166.23
2023-03-26T10:04:01.985Z,99161.64
2023-03-26T10:06:42.708Z,99168.56
2023-03-26T10:09:33.940Z,99164.34
2023-03-26T10:12:16.983Z,99160.48
2023-03-26T10:15:00.316Z,99150.86
2023-03-26T10:18:27.120Z,99158.40
2023-03-26T10:21:17.315Z,99158.13
2023-03-26T10:23:57.214Z,99162.79
2023-03-26T10:26:42.028Z,99174.34
2023-03-26T10:29:44.221Z,99191.52
2023-03-26T10:32:47.333Z,99192.38
2023-03-26T10:35:52.697Z,99178.68
2023-03-26T10:38:43.731Z,99173.79
2023-03-26T10:41:22.359Z,99168.87
2023-03-26T10:44:07.308Z,99160.77
2023-03-26T10:46:42.343Z,99160.85
2023-03-26T10:49:41.708Z,99158.17
2023-03-26T10:52:16.208Z,99153.69
2023-03-26T10:54:58.198Z,99156.58
2023-03-26T10:57:32.209Z,99151.70
2023-03-26T11:00:26.622Z,99152.30
2023-03-26T11:03:19.819Z,99153.23
2023-03-26T11:06:16.101Z,99155.34
2023-03-26T11:08:55.890Z,99160.02
2023-03-26T11:11:45.319Z,99157.42
2023-03-26T11:14:35.173Z,99155.47
2023-03-26T11:17:40.566Z,99151.93
2023-03-26T11:20:23.367Z,99146.70
2023-03-26T11:23:07.838Z,99148.83
2023-03-26T11:25:52.882Z,99143.56
2023-03-26T11:28:21.335Z,99141.73
2023-03-26T11:31:01.558Z,99139.09
2023-03-26T11:33:36.649Z,99140.08
2023-03-26T11:36:12.051Z,99136.85
2023-03-26T11:38:49.676Z,99139.50
2023-03-26T11:41:25.028Z,99142.27
2023-03-26T11:44:21.863Z,99142.89
2023-03-26T11:46:58.922Z,99140.81
2023-03-26T11:49:29.735Z,99135.98
2023-03-26T11:51:59.420Z,99140.08
2023-03-26T11:54:28.023Z,99140.30
2023-03-26T11:57:13.229Z,99145.10
2023-03-26T11:59:55.483Z,99143.35
2023-03-26T12:02:35.079Z,99139.83
2023-03-26T12:05:18.383Z,99139.81
2023-03-26T12:07:56.965Z,99137.84
2023-03-26T12:10:29.845Z,99139.46
2023-03-26T12:13:01.950Z,99136.18
2023-03-26T12:15:32.305Z,99134.21
2023-03-26T12:18:21.024Z,99139.85
2023-03-26T12:20:49.556Z,99138.84
2023-03-26T12:24:00.342Z,99139.98
2023-03-26T12:26:42.973Z,99138.36
2023-03-26T12:29:14.161Z,99134.33
2023-03-26T12:31:55.687Z,99131.37
2023-03-26T12:34:31.851Z,99140.13
2023-03-26T12:37:01.018Z,99134.27
2023-03-26T12:40:08.827Z,99126.15
2023-03-26T12:44:47.002Z,99130.64
2023-03-26T12:45:28.127Z,99137.19
2023-03-26T12:48:03.807Z,99147.98
2023-03-26T12:50:57.672Z,99149.11
2023-03-26T12:53:47.298Z,99149.88
2023-03-26T12:56:36.599Z,99146.91
2023-03-26T12:59:18.591Z,99142.30
2023-03-26T13:02:08.312Z,99142.66
2023-03-26T13:05:02.155Z,99133.26
2023-03-26T13:08:00.484Z,99132.71
2023-03-26T13:10:54.681Z,99125.49
2023-03-26T13:13:41.578Z,99128.30
2023-03-26T13:16:14.112Z,99131.15
2023-03-26T13:19:06.289Z,99135.39
2023-03-26T13:22:03.315Z,99128.80
2023-03-26T13:25:07.727Z,99129.28
2023-03-26T13:28:00.574Z,99126.48
2023-03-26T13:30:43.780Z,99128.84
2023-03-26T13:33:27.078Z,99131.12
2023-03-26T13:36:10.229Z,99146.13
2023-03-26T13:38:59.139Z,99149.93
2023-03-26T13:41:28.978Z,99144.27
2023-03-26T13:44:05.459Z,99140.39
2023-03-26T13:46:54.931Z,99141.64
2023-03-26T13:49:43.615Z,99139.80
2023-03-26T13:52:39.826Z,99134.31
2023-03-26T13:55:29.513Z,99134.92
2023-03-26T13:58:14.245Z,99138.14
2023-03-26T14:00:54.739Z,99132.98
2023-03-26T14:03:31.943Z,99133.46
2023-03-26T14:06:06.650Z,99138.25
2023-03-26T14:08:47.608Z,99136.36
2023-03-26T14:11:50.560Z,99130.00
2023-03-26T14:15:03.494Z,99129.40
2023-03-26T14:17:46.583Z,99127.85
2023-03-26T14:20:18.016Z,99129.21
2023-03-26T14:23:31.864Z,99127.27
2023-03-26T14:26:29.607Z,99133.59
2023-03-26T14:29:10.316Z,99130.27
2023-03-26T14:32:07.150Z,99123.23
2023-03-26T14:34:55.910Z,99123.80
2023-03-26T14:37:42.482Z,99122.33
2023-03-26T14:40:15.470Z,99120.69
2023-03-26T14:43:15.762Z,99124.73
2023-03-26T14:46:02.399Z,99124.59
2023-03-26T14:48:36.904Z,99120.41
2023-03-26T14:51:14.610Z,99121.45
2023-03-26T14:53:47.699Z,99119.28
2023-03-26T14:56:24.879Z,99117.55
2023-03-26T14:59:11.965Z,99114.52
2023-03-26T15:02:08.226Z,99116.52
2023-03-26T15:04:54.657Z,99121.67
2023-03-26T15:07:37.310Z,99119.81
2023-03-26T15:10:22.941Z,99115.88
2023-03-26T15:13:22.513Z,99115.77
2023-03-26T15:16:03.660Z,99117.55
2023-03-26T15:18:59.433Z,99121.33
2023-03-26T15:21:55.755Z,99128.79
2023-03-26T15:24:38.732Z,99126.67
2023-03-26T15:27:28.582Z,99128.75
2023-03-26T15:30:11.724Z,99125.04
2023-03-26T15:33:18.225Z,99123.38
2023-03-26T15:36:29.575Z,99122.69
2023-03-26T15:39:58.686Z,99124.52
2023-03-26T15:42:47.005Z,99126.77
2023-03-26T15:45:45.139Z,99130.04
2023-03-26T15:48:43.269Z,99131.59
2023-03-26T15:51:47.320Z,99139.47
2023-03-26T15:54:23.768Z,99133.93
2023-03-26T15:57:20.295Z,99139.88
2023-03-26T16:00:18.784Z,99138.98
2023-03-26T16:03:12.933Z,99138.27
2023-03-26T16:06:03.774Z,99136.02
2023-03-26T16:08:41.299Z,99139.38
2023-03-26T16:11:12.786Z,99137.73
2023-03-26T16:13:49.930Z,99140.77
2023-03-26T16:16:25.448Z,99143.63
2023-03-26T16:19:18.371Z,99143.27
2023-03-26T16:22:00.568Z,99144.90
2023-03-26T16:24:35.471Z,99147.30
2023-03-26T16:27:15.755Z,99143.20
2023-03-26T16:30:16.830Z,99146.85
2023-03-26T16:32:56.382Z,99147.52
2023-03-26T16:35:57.139Z,99150.98
2023-03-26T16:38:27.327Z,99148.66
2023-03-26T16:41:01.860Z,99154.54
2023-03-26T16:43:40.470Z,99153.80
2023-03-26T16:46:17.785Z,99154.79
2023-03-26T16:48:48.786Z,99157.09
2023-03-26T16:51:54.458Z,99160.38
2023-03-26T16:54:41.077Z,99162.19
2023-03-26T16:57:26.293Z,99163.15
2023-03-26T17:00:29.282Z,99164.08
2023-03-26T17:03:25.921Z,99166.34
2023-03-26T17:05:57.129Z,99170.73
2023-03-26T17:08:46.899Z,99176.20
2023-03-26T17:11:23.957Z,99179.55
2023-03-26T17:14:18.505Z,99182.59
2023-03-26T17:16:52.497Z,99181.81
2023-03-26T17:19:33.754Z,99184.70
2023-03-26T17:22:33.799Z,99183.04
2023-03-26T17:25:05.800Z,99182.02
2023-03-26T17:28:21.404Z,99181.99
2023-03-26T17:31:17.673Z,99182.05
2023-03-26T17:33:46.265Z,99181.73
2023-03-26T17:36:28.532Z,99181.36
2023-03-26T17:39:19.718Z,99186.30
2023-03-26T17:42:01.234Z,99190.05
2023-03-26T17:44:54.087Z,99191.70
2023-03-26T17:47:28.726Z,99187.08
2023-03-26T17:50:22.872Z,99187.77
2023-03-26T17:53:18.149Z,99188.14
2023-03-26T17:55:49.547Z,99189.48
2023-03-26T17:58:32.338Z,99191.83
2023-03-26T18:01:30.051Z,99191.95
2023-03-26T18:04:02.963Z,99191.98
2023-03-26T18:06:31.091Z,99150.30
2023-03-26T18:09:37.449Z,99192.72
2023-03-26T18:12:36.068Z,99197.05
2023-03-26T18:15:14.160Z,99195.02
2023-03-26T18:17:46.318Z,99196.06
2023-03-26T18:20:36.951Z,99197.52
2023-03-26T18:23:21.110Z,99195.46
2023-03-26T18:25:57.250Z,99194.22
2023-03-26T18:28:35.801Z,99192.26
2023-03-26T18:31:18.967Z,99194.96
2023-03-26T18:33:48.871Z,99194.11
2023-03-26T18:36:18.803Z,99191.83
2023-03-26T18:38:49.079Z,99193.14
2023-03-26T18:41:31.377Z,99193.02
2023-03-26T18:44:05.219Z,99193.10
2023-03-26T18:46:34.235Z,99195.92
2023-03-26T18:49:03.140Z,99186.35
2023-03-26T18:51:32.168Z,99189.04
2023-03-26T18:54:03.667Z,99184.20
2023-03-26T18:56:36.873Z,99175.98
2023-03-26T18:59:07.675Z,99175.23
2023-03-26T19:01:37.669Z,99171.55
2023-03-26T19:04:08.044Z,99167.77
2023-03-26T19:06:41.984Z,99164.92
2023-03-26T19:09:28.090Z,99163.37
2023-03-26T19:12:18.955Z,99161.98
2023-03-26T19:14:57.673Z,99159.32
2023-03-26T19:17:30.340Z,99155.79
2023-03-26T19:19:58.855Z,99155.25
2023-03-26T19:22:29.198Z,99151.93
2023-03-26T19:25:01.697Z,99149.36
2023-03-26T19:27:32.251Z,99150.67
2023-03-26T19:30:00.355Z,99149.63
2023-03-26T19:32:34.778Z,99144.33
2023-03-26T19:35:04.712Z,99144.85
2023-03-26T19:37:33.240Z,99145.58
2023-03-26T19:40:14.433Z,99151.92
2023-03-26T19:42:44.740Z,99148.71
2023-03-26T19:45:17.884Z,99150.67
2023-03-26T19:47:54.718Z,99146.00
2023-03-26T19:50:35.602Z,99143.83
2023-03-26T19:53:15.441Z,99142.15
2023-03-26T19:56:21.768Z,99140.03
2023-03-26T19:58:50.408Z,99140.65
2023-03-26T20:01:27.541Z,99138.70
2023-03-26T20:03:59.947Z,99140.51
2023-03-26T20:09:21.462Z,99135.39
2023-03-26T20:11:50.517Z,99132.88
2023-03-26T20:14:25.803Z,99132.06
2023-03-26T20:16:54.491Z,99126.00
2023-03-26T20:19:23.051Z,99121.10
2023-03-26T20:21:52.776Z,99115.63
2023-03-26T20:24:21.879Z,99111.25
2023-03-26T20:26:50.067Z,99114.30
2023-03-26T20:29:19.241Z,99104.59
2023-03-26T20:31:48.918Z,99108.39
2023-03-26T20:34:22.705Z,99107.88
2023-03-26T20:37:01.187Z,99116.42
2023-03-26T20:39:29.605Z,99119.22
2023-03-26T20:41:57.867Z,99120.13
2023-03-26T20:44:27.663Z,99121.93
2023-03-26T20:46:57.344Z,99118.14
2023-03-26T20:49:25.818Z,99118.26
2023-03-26T20:51:54.383Z,99120.61
2023-03-26T20:54:24.574Z,99121.95
2023-03-26T20:56:54.454Z,99121.38
2023-03-26T20:59:26.879Z,99120.52
2023-03-26T21:01:57.836Z,99120.59
2023-03-26T21:04:27.539Z,99123.44
2023-03-26T21:07:06.686Z,99122.35
2023-03-26T21:09:40.052Z,99121.60
2023-03-26T21:12:33.596Z,99126.80
2023-03-26T21:15:07.181Z,99127.11
2023-03-26T21:17:39.825Z,99127.95
2023-03-26T21:20:13.704Z,99123.97
2023-03-26T21:22:54.363Z,99120.61
2023-03-26T21:25:28.885Z,99123.45
2023-03-26T21:28:08.843Z,99117.98
2023-03-26T21:30:37.732Z,99114.65
2023-03-26T21:33:06.439Z,99114.44
2023-03-26T21:35:35.053Z,99114.91
2023-03-26T21:38:04.930Z,99102.23
2023-03-26T21:40:33.300Z,99116.95
2023-03-26T21:43:01.973Z,99112.23
2023-03-26T21:45:30.518Z,99114.38
2023-03-26T21:47:58.807Z,99110.32
2023-03-26T21:50:27.018Z,99109.96
2023-03-26T21:52:56.907Z,99107.77
2023-03-26T21:55:25.213Z,99102.13
2023-03-26T21:58:27.585Z,99098.61
2023-03-26T22:01:11.101Z,99099.85
2023-03-26T22:04:24.109Z,99092.19
2023-03-26T22:07:07.066Z,99093.74
2023-03-26T22:09:36.419Z,99094.95
2023-03-26T22:12:05.541Z,99097.65
2023-03-26T22:14:34.510Z,99093.23
2023-03-26T22:17:02.797Z,99092.77
2023-03-26T22:19:31.044Z,99094.20
2023-03-26T22:22:00.259Z,99092.96
2023-03-26T22:24:28.710Z,99095.73
2023-03-26T22:26:57.150Z,99097.49
2023-03-26T22:29:25.265Z,99096.70
2023-03-26T22:31:53.313Z,99096.77
2023-03-26T22:34:23.191Z,99095.34
2023-03-26T22:36:52.133Z,99090.81
2023-03-26T22:39:20.222Z,99093.02
2023-03-26T22:41:48.682Z,99095.20
2023-03-26T22:44:20.287Z,99098.27
2023-03-26T22:46:52.532Z,99100.42
2023-03-26T22:49:21.415Z,99097.24
2023-03-26T22:51:50.421Z,99098.88
2023-03-26T22:54:18.473Z,99098.21
2023-03-26T22:56:46.503Z,99089.01
2023-03-26T22:59:14.541Z,99090.23
2023-03-26T23:01:44.456Z,99087.26
2023-03-26T23:04:13.006Z,99091.34
2023-03-26T23:07:00.400Z,99090.52
2023-03-26T23:09:29.569Z,99088.98
2023-03-26T23:11:57.864Z,99086.30
2023-03-26T23:14:26.398Z,99085.74
2023-03-26T23:16:55.183Z,99086.72
2023-03-26T23:19:23.081Z,99087.66
2023-03-26T23:21:51.282Z,99086.22
2023-03-26T23:24:19.841Z,99089.29
2023-03-26T23:26:50.942Z,99091.31
2023-03-26T23:29:19.379Z,99088.98
2023-03-26T23:31:47.688Z,99095.83
2023-03-26T23:34:17.163Z,99097.30
2023-03-26T23:36:45.447Z,99101.41
2023-03-26T23:39:13.875Z,99102.60
2023-03-26T23:41:41.958Z,99103.01
2023-03-26T23:44:13.999Z,99103.72
2023-03-26T23:46:42.879Z,99100.76
2023-03-26T23:49:12.172Z,99106.36
2023-03-26T23:51:40.748Z,99105.82
2023-03-26T23:54:08.911Z,99107.86
2023-03-26T23:56:37.012Z,99106.19
2023-03-26T23:59:05.126Z,99102.63
